sensor_id;sensor_type;location;lat;lon;timestamp;temperature;humidity
33811;DHT22;20119;48.334;16.206;2023-03-05T00:01:56;2.60;99.90
33811;DHT22;20119;48.334;16.206;2023-03-05T00:04:23;2.60;99.90
33811;DHT22;20119;48.334;16.206;2023-03-05T00:06:50;2.60;99.90
33811;DHT22;20119;48.334;16.206;2023-03-05T00:09:17;2.60;99.90
33811;DHT22;20119;48.334;16.206;2023-03-05T00:11:44;2.70;99.90
33811;DHT22;20119;48.334;16.206;2023-03-05T00:14:13;2.70;99.90
33811;DHT22;20119;48.334;16.206;2023-03-05T00:16:40;2.70;99.90
33811;DHT22;20119;48.334;16.206;2023-03-05T00:19:08;2.60;99.90
33811;DHT22;20119;48.334;16.206;2023-03-05T00:21:38;2.60;99.90
33811;DHT22;20119;48.334;16.206;2023-03-05T00:24:08;2.60;99.90
33811;DHT22;20119;48.334;16.206;2023-03-05T00:26:37;2.60;99.90
33811;DHT22;20119;48.334;16.206;2023-03-05T00:29:06;2.60;99.90
33811;DHT22;20119;48.334;16.206;2023-03-05T00:31:36;2.60;99.90
33811;DHT22;20119;48.334;16.206;2023-03-05T00:34:05;2.70;99.90
33811;DHT22;20119;48.334;16.206;2023-03-05T00:36:33;2.70;99.90
33811;DHT22;20119;48.334;16.206;2023-03-05T00:39:00;2.70;99.90
33811;DHT22;20119;48.334;16.206;2023-03-05T00:41:28;2.70;99.90
33811;DHT22;20119;48.334;16.206;2023-03-05T00:43:55;2.60;99.90
33811;DHT22;20119;48.334;16.206;2023-03-05T00:46:22;2.70;99.90
33811;DHT22;20119;48.334;16.206;2023-03-05T00:48:53;2.60;99.90
33811;DHT22;20119;48.334;16.206;2023-03-05T00:51:21;2.60;99.90
33811;DHT22;20119;48.334;16.206;2023-03-05T00:53:49;2.60;99.90
33811;DHT22;20119;48.334;16.206;2023-03-05T00:56:16;2.60;99.90
33811;DHT22;20119;48.334;16.206;2023-03-05T00:58:43;2.60;99.90
33811;DHT22;20119;48.334;16.206;2023-03-05T01:01:11;2.60;99.90
33811;DHT22;20119;48.334;16.206;2023-03-05T01:03:38;2.60;99.90
33811;DHT22;20119;48.334;16.206;2023-03-05T01:06:09;2.60;99.90
33811;DHT22;20119;48.334;16.206;2023-03-05T01:08:38;2.60;99.90
33811;DHT22;20119;48.334;16.206;2023-03-05T01:11:06;2.60;99.90
33811;DHT22;20119;48.334;16.206;2023-03-05T01:13:33;2.60;99.90
33811;DHT22;20119;48.334;16.206;2023-03-05T01:16:01;2.60;99.90
33811;DHT22;20119;48.334;16.206;2023-03-05T01:18:28;2.60;99.90
33811;DHT22;20119;48.334;16.206;2023-03-05T01:20:55;2.70;99.90
33811;DHT22;20119;48.334;16.206;2023-03-05T01:23:24;2.60;99.90
33811;DHT22;20119;48.334;16.206;2023-03-05T01:25:54;2.60;99.90
33811;DHT22;20119;48.334;16.206;2023-03-05T01:28:21;2.60;99.90
33811;DHT22;20119;48.334;16.206;2023-03-05T01:30:49;2.60;99.90
33811;DHT22;20119;48.334;16.206;2023-03-05T01:33:16;2.70;99.90
33811;DHT22;20119;48.334;16.206;2023-03-05T01:35:45;2.70;99.90
33811;DHT22;20119;48.334;16.206;2023-03-05T01:38:14;2.70;99.90
33811;DHT22;20119;48.334;16.206;2023-03-05T01:40:43;2.70;99.90
33811;DHT22;20119;48.334;16.206;2023-03-05T01:43:25;2.70;99.90
33811;DHT22;20119;48.334;16.206;2023-03-05T01:46:31;2.70;99.90
33811;DHT22;20119;48.334;16.206;2023-03-05T01:49:24;2.70;99.90
33811;DHT22;20119;48.334;16.206;2023-03-05T01:52:04;2.70;99.90
33811;DHT22;20119;48.334;16.206;2023-03-05T01:54:38;2.70;99.90
33811;DHT22;20119;48.334;16.206;2023-03-05T01:57:12;2.70;99.90
33811;DHT22;20119;48.334;16.206;2023-03-05T01:59:41;2.70;99.90
33811;DHT22;20119;48.334;16.206;2023-03-05T02:02:10;2.70;99.90
33811;DHT22;20119;48.334;16.206;2023-03-05T02:04:42;2.70;99.90
33811;DHT22;20119;48.334;16.206;2023-03-05T02:07:11;2.70;99.90
33811;DHT22;20119;48.334;16.206;2023-03-05T02:09:39;2.70;99.90
33811;DHT22;20119;48.334;16.206;2023-03-05T02:12:09;2.80;99.90
33811;DHT22;20119;48.334;16.206;2023-03-05T02:14:37;2.70;99.90
33811;DHT22;20119;48.334;16.206;2023-03-05T02:17:07;2.70;99.90
33811;DHT22;20119;48.334;16.206;2023-03-05T02:19:46;2.70;99.90
33811;DHT22;20119;48.334;16.206;2023-03-05T02:22:15;2.70;99.90
33811;DHT22;20119;48.334;16.206;2023-03-05T02:24:42;2.60;99.90
33811;DHT22;20119;48.334;16.206;2023-03-05T02:27:11;2.70;99.90
33811;DHT22;20119;48.334;16.206;2023-03-05T02:29:42;2.70;99.90
33811;DHT22;20119;48.334;16.206;2023-03-05T02:32:09;2.70;99.90
33811;DHT22;20119;48.334;16.206;2023-03-05T02:34:37;2.70;99.90
33811;DHT22;20119;48.334;16.206;2023-03-05T02:37:05;2.70;99.90
33811;DHT22;20119;48.334;16.206;2023-03-05T02:39:35;2.70;99.90
33811;DHT22;20119;48.334;16.206;2023-03-05T02:42:04;2.70;99.90
33811;DHT22;20119;48.334;16.206;2023-03-05T02:44:33;2.70;99.90
33811;DHT22;20119;48.334;16.206;2023-03-05T02:47:01;2.70;99.90
33811;DHT22;20119;48.334;16.206;2023-03-05T02:49:28;2.70;99.90
33811;DHT22;20119;48.334;16.206;2023-03-05T02:51:55;2.70;99.90
33811;DHT22;20119;48.334;16.206;2023-03-05T02:54:23;2.70;99.90
33811;DHT22;20119;48.334;16.206;2023-03-05T02:56:51;2.70;99.90
33811;DHT22;20119;48.334;16.206;2023-03-05T02:59:18;2.70;99.90
33811;DHT22;20119;48.334;16.206;2023-03-05T03:01:45;2.80;99.90
33811;DHT22;20119;48.334;16.206;2023-03-05T03:04:12;2.70;99.90
33811;DHT22;20119;48.334;16.206;2023-03-05T03:06:40;2.70;99.90
33811;DHT22;20119;48.334;16.206;2023-03-05T03:09:07;2.70;99.90
33811;DHT22;20119;48.334;16.206;2023-03-05T03:11:34;2.70;99.90
33811;DHT22;20119;48.334;16.206;2023-03-05T03:14:03;2.80;99.90
33811;DHT22;20119;48.334;16.206;2023-03-05T03:16:30;2.70;99.90
33811;DHT22;20119;48.334;16.206;2023-03-05T03:18:59;2.70;99.90
33811;DHT22;20119;48.334;16.206;2023-03-05T03:21:26;2.80;99.90
33811;DHT22;20119;48.334;16.206;2023-03-05T03:23:53;2.80;99.90
33811;DHT22;20119;48.334;16.206;2023-03-05T03:26:21;2.80;99.90
33811;DHT22;20119;48.334;16.206;2023-03-05T03:28:49;2.80;99.90
33811;DHT22;20119;48.334;16.206;2023-03-05T03:31:18;2.80;99.90
33811;DHT22;20119;48.334;16.206;2023-03-05T03:33:45;2.80;99.90
33811;DHT22;20119;48.334;16.206;2023-03-05T03:36:12;2.80;99.90
33811;DHT22;20119;48.334;16.206;2023-03-05T03:38:40;2.80;99.90
33811;DHT22;20119;48.334;16.206;2023-03-05T03:41:07;2.70;99.90
33811;DHT22;20119;48.334;16.206;2023-03-05T03:43:35;2.80;99.90
33811;DHT22;20119;48.334;16.206;2023-03-05T03:46:04;2.80;99.90
33811;DHT22;20119;48.334;16.206;2023-03-05T03:48:33;2.80;99.90
33811;DHT22;20119;48.334;16.206;2023-03-05T03:51:04;2.70;99.90
33811;DHT22;20119;48.334;16.206;2023-03-05T03:53:31;2.80;99.90
33811;DHT22;20119;48.334;16.206;2023-03-05T03:55:59;2.80;99.90
33811;DHT22;20119;48.334;16.206;2023-03-05T03:58:26;2.80;99.90
33811;DHT22;20119;48.334;16.206;2023-03-05T04:00:53;2.90;99.90
33811;DHT22;20119;48.334;16.206;2023-03-05T04:03:20;2.80;99.90
33811;DHT22;20119;48.334;16.206;2023-03-05T04:05:49;2.80;99.90
33811;DHT22;20119;48.334;16.206;2023-03-05T04:08:16;2.70;99.90
33811;DHT22;20119;48.334;16.206;2023-03-05T04:10:43;2.70;99.90
33811;DHT22;20119;48.334;16.206;2023-03-05T04:13:11;2.70;99.90
33811;DHT22;20119;48.334;16.206;2023-03-05T04:15:38;2.70;99.90
33811;DHT22;20119;48.334;16.206;2023-03-05T04:18:05;2.60;99.90
33811;DHT22;20119;48.334;16.206;2023-03-05T04:20:32;2.70;99.90
33811;DHT22;20119;48.334;16.206;2023-03-05T04:23:01;2.60;99.90
33811;DHT22;20119;48.334;16.206;2023-03-05T04:25:28;2.60;99.90
33811;DHT22;20119;48.334;16.206;2023-03-05T04:27:55;2.60;99.90
33811;DHT22;20119;48.334;16.206;2023-03-05T04:30:23;2.60;99.90
33811;DHT22;20119;48.334;16.206;2023-03-05T04:32:50;2.70;99.90
33811;DHT22;20119;48.334;16.206;2023-03-05T04:35:17;2.70;99.90
33811;DHT22;20119;48.334;16.206;2023-03-05T04:37:45;2.70;99.90
33811;DHT22;20119;48.334;16.206;2023-03-05T04:40:15;2.60;99.90
33811;DHT22;20119;48.334;16.206;2023-03-05T04:42:42;2.60;99.90
33811;DHT22;20119;48.334;16.206;2023-03-05T04:45:10;2.60;99.90
33811;DHT22;20119;48.334;16.206;2023-03-05T04:47:37;2.70;99.90
33811;DHT22;20119;48.334;16.206;2023-03-05T04:50:06;2.70;99.90
33811;DHT22;20119;48.334;16.206;2023-03-05T04:52:33;2.70;99.90
33811;DHT22;20119;48.334;16.206;2023-03-05T04:55:01;2.70;99.90
33811;DHT22;20119;48.334;16.206;2023-03-05T04:57:30;2.70;99.90
33811;DHT22;20119;48.334;16.206;2023-03-05T04:59:57;2.60;99.90
33811;DHT22;20119;48.334;16.206;2023-03-05T05:02:24;2.70;99.90
33811;DHT22;20119;48.334;16.206;2023-03-05T05:04:52;2.60;99.90
33811;DHT22;20119;48.334;16.206;2023-03-05T05:07:19;2.60;99.90
33811;DHT22;20119;48.334;16.206;2023-03-05T05:09:47;2.60;99.90
33811;DHT22;20119;48.334;16.206;2023-03-05T05:12:14;2.60;99.90
33811;DHT22;20119;48.334;16.206;2023-03-05T05:14:43;2.60;99.90
33811;DHT22;20119;48.334;16.206;2023-03-05T05:17:10;2.60;99.90
33811;DHT22;20119;48.334;16.206;2023-03-05T05:19:37;2.60;99.90
33811;DHT22;20119;48.334;16.206;2023-03-05T05:22:04;2.60;99.90
33811;DHT22;20119;48.334;16.206;2023-03-05T05:24:32;2.60;99.90
33811;DHT22;20119;48.334;16.206;2023-03-05T05:26:59;2.70;99.90
33811;DHT22;20119;48.334;16.206;2023-03-05T05:29:26;2.70;99.90
33811;DHT22;20119;48.334;16.206;2023-03-05T05:31:55;2.70;99.90
33811;DHT22;20119;48.334;16.206;2023-03-05T05:34:22;2.70;99.90
33811;DHT22;20119;48.334;16.206;2023-03-05T05:36:51;2.60;99.90
33811;DHT22;20119;48.334;16.206;2023-03-05T05:39:19;2.60;99.90
33811;DHT22;20119;48.334;16.206;2023-03-05T05:41:49;2.70;99.90
33811;DHT22;20119;48.334;16.206;2023-03-05T05:44:16;2.70;99.90
33811;DHT22;20119;48.334;16.206;2023-03-05T05:46:44;2.80;99.90
33811;DHT22;20119;48.334;16.206;2023-03-05T05:49:12;2.60;99.90
33811;DHT22;20119;48.334;16.206;2023-03-05T05:51:40;2.70;99.90
33811;DHT22;20119;48.334;16.206;2023-03-05T05:54:11;2.70;99.90
33811;DHT22;20119;48.334;16.206;2023-03-05T05:56:38;2.80;99.90
33811;DHT22;20119;48.334;16.206;2023-03-05T05:59:05;2.70;99.90
33811;DHT22;20119;48.334;16.206;2023-03-05T06:01:33;2.80;99.90
33811;DHT22;20119;48.334;16.206;2023-03-05T06:04:01;2.80;99.90
33811;DHT22;20119;48.334;16.206;2023-03-05T06:06:31;2.80;99.90
33811;DHT22;20119;48.334;16.206;2023-03-05T06:09:00;2.70;99.90
33811;DHT22;20119;48.334;16.206;2023-03-05T06:11:27;2.80;99.90
33811;DHT22;20119;48.334;16.206;2023-03-05T06:13:54;2.70;99.90
33811;DHT22;20119;48.334;16.206;2023-03-05T06:16:22;2.80;99.90
33811;DHT22;20119;48.334;16.206;2023-03-05T06:18:51;2.70;99.90
33811;DHT22;20119;48.334;16.206;2023-03-05T06:21:20;2.70;99.90
33811;DHT22;20119;48.334;16.206;2023-03-05T06:23:50;2.70;99.90
33811;DHT22;20119;48.334;16.206;2023-03-05T06:26:19;2.70;99.90
33811;DHT22;20119;48.334;16.206;2023-03-05T06:28:47;2.70;99.90
33811;DHT22;20119;48.334;16.206;2023-03-05T06:31:17;2.80;99.90
33811;DHT22;20119;48.334;16.206;2023-03-05T06:33:44;2.80;99.90
33811;DHT22;20119;48.334;16.206;2023-03-05T06:36:14;2.80;99.90
33811;DHT22;20119;48.334;16.206;2023-03-05T06:38:42;2.80;99.90
33811;DHT22;20119;48.334;16.206;2023-03-05T06:41:13;2.80;99.90
33811;DHT22;20119;48.334;16.206;2023-03-05T06:43:41;2.70;99.90
33811;DHT22;20119;48.334;16.206;2023-03-05T06:46:12;2.80;99.90
33811;DHT22;20119;48.334;16.206;2023-03-05T06:48:40;2.80;99.90
33811;DHT22;20119;48.334;16.206;2023-03-05T06:51:13;2.70;99.90
33811;DHT22;20119;48.334;16.206;2023-03-05T06:53:41;2.80;99.90
33811;DHT22;20119;48.334;16.206;2023-03-05T06:56:08;2.80;99.90
33811;DHT22;20119;48.334;16.206;2023-03-05T06:58:37;2.80;99.90
33811;DHT22;20119;48.334;16.206;2023-03-05T07:01:05;2.90;99.90
33811;DHT22;20119;48.334;16.206;2023-03-05T07:03:33;2.90;99.90
33811;DHT22;20119;48.334;16.206;2023-03-05T07:06:02;2.90;99.90
33811;DHT22;20119;48.334;16.206;2023-03-05T07:08:31;2.90;99.90
33811;DHT22;20119;48.334;16.206;2023-03-05T07:10:59;2.90;99.90
33811;DHT22;20119;48.334;16.206;2023-03-05T07:13:28;3.00;99.90
33811;DHT22;20119;48.334;16.206;2023-03-05T07:15:57;3.00;99.90
33811;DHT22;20119;48.334;16.206;2023-03-05T07:18:24;3.10;99.90
33811;DHT22;20119;48.334;16.206;2023-03-05T07:20:52;3.10;99.90
33811;DHT22;20119;48.334;16.206;2023-03-05T07:23:20;3.10;99.90
33811;DHT22;20119;48.334;16.206;2023-03-05T07:25:47;3.10;99.90
33811;DHT22;20119;48.334;16.206;2023-03-05T07:28:15;3.10;99.90
33811;DHT22;20119;48.334;16.206;2023-03-05T07:30:42;3.10;99.90
33811;DHT22;20119;48.334;16.206;2023-03-05T07:33:10;3.10;99.90
33811;DHT22;20119;48.334;16.206;2023-03-05T07:35:39;3.20;99.90
33811;DHT22;20119;48.334;16.206;2023-03-05T07:38:07;3.20;99.90
33811;DHT22;20119;48.334;16.206;2023-03-05T07:40:37;3.20;99.90
33811;DHT22;20119;48.334;16.206;2023-03-05T07:43:04;3.20;99.90
33811;DHT22;20119;48.334;16.206;2023-03-05T07:45:33;3.20;99.90
33811;DHT22;20119;48.334;16.206;2023-03-05T07:48:00;3.20;99.90
33811;DHT22;20119;48.334;16.206;2023-03-05T07:50:30;3.30;99.90
33811;DHT22;20119;48.334;16.206;2023-03-05T07:52:57;3.30;99.90
33811;DHT22;20119;48.334;16.206;2023-03-05T07:55:24;3.30;99.90
33811;DHT22;20119;48.334;16.206;2023-03-05T07:57:51;3.40;99.90
33811;DHT22;20119;48.334;16.206;2023-03-05T08:00:19;3.50;99.90
33811;DHT22;20119;48.334;16.206;2023-03-05T08:02:46;3.60;99.90
33811;DHT22;20119;48.334;16.206;2023-03-05T08:05:14;3.60;99.90
33811;DHT22;20119;48.334;16.206;2023-03-05T08:07:43;3.60;99.90
33811;DHT22;20119;48.334;16.206;2023-03-05T08:10:10;3.70;99.90
33811;DHT22;20119;48.334;16.206;2023-03-05T08:12:38;3.60;99.90
33811;DHT22;20119;48.334;16.206;2023-03-05T08:15:06;3.70;99.90
33811;DHT22;20119;48.334;16.206;2023-03-05T08:17:33;3.70;99.90
33811;DHT22;20119;48.334;16.206;2023-03-05T08:20:01;3.80;99.90
33811;DHT22;20119;48.334;16.206;2023-03-05T08:22:32;3.80;99.90
33811;DHT22;20119;48.334;16.206;2023-03-05T08:25:03;3.90;99.90
33811;DHT22;20119;48.334;16.206;2023-03-05T08:27:31;4.00;99.90
33811;DHT22;20119;48.334;16.206;2023-03-05T08:29:59;4.00;99.90
33811;DHT22;20119;48.334;16.206;2023-03-05T08:32:27;4.20;99.90
33811;DHT22;20119;48.334;16.206;2023-03-05T08:34:55;4.10;99.90
33811;DHT22;20119;48.334;16.206;2023-03-05T08:37:23;4.30;99.90
33811;DHT22;20119;48.334;16.206;2023-03-05T08:39:50;4.60;99.90
33811;DHT22;20119;48.334;16.206;2023-03-05T08:42:19;4.80;99.90
33811;DHT22;20119;48.334;16.206;2023-03-05T08:44:47;4.60;99.90
33811;DHT22;20119;48.334;16.206;2023-03-05T08:47:14;4.80;99.90
33811;DHT22;20119;48.334;16.206;2023-03-05T08:49:42;5.00;99.90
33811;DHT22;20119;48.334;16.206;2023-03-05T08:52:10;4.90;99.90
33811;DHT22;20119;48.334;16.206;2023-03-05T08:54:37;5.10;99.90
33811;DHT22;20119;48.334;16.206;2023-03-05T08:57:04;5.20;99.90
33811;DHT22;20119;48.334;16.206;2023-03-05T08:59:37;5.40;99.90
33811;DHT22;20119;48.334;16.206;2023-03-05T09:02:04;5.40;99.90
33811;DHT22;20119;48.334;16.206;2023-03-05T09:04:32;5.40;99.90
33811;DHT22;20119;48.334;16.206;2023-03-05T09:06:59;5.50;99.90
33811;DHT22;20119;48.334;16.206;2023-03-05T09:09:25;5.50;99.90
33811;DHT22;20119;48.334;16.206;2023-03-05T09:11:56;5.50;99.90
33811;DHT22;20119;48.334;16.206;2023-03-05T09:14:23;5.60;99.90
33811;DHT22;20119;48.334;16.206;2023-03-05T09:16:54;5.60;99.90
33811;DHT22;20119;48.334;16.206;2023-03-05T09:19:21;5.90;99.90
33811;DHT22;20119;48.334;16.206;2023-03-05T09:21:49;5.90;99.90
33811;DHT22;20119;48.334;16.206;2023-03-05T09:24:16;6.00;99.90
33811;DHT22;20119;48.334;16.206;2023-03-05T09:26:43;5.90;99.90
33811;DHT22;20119;48.334;16.206;2023-03-05T09:29:10;5.70;99.90
33811;DHT22;20119;48.334;16.206;2023-03-05T09:31:39;5.80;99.90
33811;DHT22;20119;48.334;16.206;2023-03-05T09:34:09;5.80;99.90
33811;DHT22;20119;48.334;16.206;2023-03-05T09:36:37;5.80;99.90
33811;DHT22;20119;48.334;16.206;2023-03-05T09:39:04;6.00;99.90
33811;DHT22;20119;48.334;16.206;2023-03-05T09:41:39;6.10;99.90
33811;DHT22;20119;48.334;16.206;2023-03-05T09:44:21;6.10;99.90
33811;DHT22;20119;48.334;16.206;2023-03-05T09:46:53;6.20;99.90
33811;DHT22;20119;48.334;16.206;2023-03-05T09:49:32;6.30;99.90
33811;DHT22;20119;48.334;16.206;2023-03-05T09:52:12;6.30;99.90
33811;DHT22;20119;48.334;16.206;2023-03-05T09:54:46;6.50;99.90
33811;DHT22;20119;48.334;16.206;2023-03-05T09:57:17;6.60;99.90
33811;DHT22;20119;48.334;16.206;2023-03-05T09:59:49;6.70;99.90
33811;DHT22;20119;48.334;16.206;2023-03-05T10:02:20;6.50;99.90
33811;DHT22;20119;48.334;16.206;2023-03-05T10:04:55;6.50;99.90
33811;DHT22;20119;48.334;16.206;2023-03-05T10:07:25;6.40;99.90
33811;DHT22;20119;48.334;16.206;2023-03-05T10:09:56;6.20;99.90
33811;DHT22;20119;48.334;16.206;2023-03-05T10:12:26;6.10;99.90
33811;DHT22;20119;48.334;16.206;2023-03-05T10:14:59;6.20;99.90
33811;DHT22;20119;48.334;16.206;2023-03-05T10:17:49;6.30;99.90
33811;DHT22;20119;48.334;16.206;2023-03-05T10:26:17;6.90;99.90
33811;DHT22;20119;48.334;16.206;2023-03-05T10:28:54;6.90;99.90
33811;DHT22;20119;48.334;16.206;2023-03-05T10:37:53;7.60;99.90
33811;DHT22;20119;48.334;16.206;2023-03-05T10:40:28;7.20;99.90
33811;DHT22;20119;48.334;16.206;2023-03-05T10:43:06;7.20;99.90
33811;DHT22;20119;48.334;16.206;2023-03-05T10:45:41;7.30;99.90
33811;DHT22;20119;48.334;16.206;2023-03-05T10:48:14;7.20;99.90
33811;DHT22;20119;48.334;16.206;2023-03-05T10:50:45;7.00;99.90
33811;DHT22;20119;48.334;16.206;2023-03-05T10:53:21;6.70;99.90
33811;DHT22;20119;48.334;16.206;2023-03-05T10:55:49;6.50;99.90
33811;DHT22;20119;48.334;16.206;2023-03-05T10:58:21;6.60;99.90
33811;DHT22;20119;48.334;16.206;2023-03-05T11:01:01;6.40;99.90
33811;DHT22;20119;48.334;16.206;2023-03-05T11:03:50;6.30;99.90
33811;DHT22;20119;48.334;16.206;2023-03-05T11:06:34;6.20;99.90
33811;DHT22;20119;48.334;16.206;2023-03-05T11:09:20;6.10;99.90
33811;DHT22;20119;48.334;16.206;2023-03-05T11:12:04;6.10;99.90
33811;DHT22;20119;48.334;16.206;2023-03-05T11:14:35;6.20;99.90
33811;DHT22;20119;48.334;16.206;2023-03-05T11:17:22;6.10;99.90
33811;DHT22;20119;48.334;16.206;2023-03-05T11:19:52;6.10;99.90
33811;DHT22;20119;48.334;16.206;2023-03-05T11:22:20;6.00;99.90
33811;DHT22;20119;48.334;16.206;2023-03-05T11:25:04;6.00;99.90
33811;DHT22;20119;48.334;16.206;2023-03-05T11:27:34;5.90;99.90
33811;DHT22;20119;48.334;16.206;2023-03-05T11:30:13;6.00;99.90
33811;DHT22;20119;48.334;16.206;2023-03-05T11:32:44;6.00;99.90
33811;DHT22;20119;48.334;16.206;2023-03-05T11:35:28;6.00;99.90
33811;DHT22;20119;48.334;16.206;2023-03-05T11:38:00;6.10;99.90
33811;DHT22;20119;48.334;16.206;2023-03-05T11:40:30;6.00;99.90
33811;DHT22;20119;48.334;16.206;2023-03-05T11:43:00;5.90;99.90
33811;DHT22;20119;48.334;16.206;2023-03-05T11:45:30;6.00;99.90
33811;DHT22;20119;48.334;16.206;2023-03-05T11:48:03;6.00;99.90
33811;DHT22;20119;48.334;16.206;2023-03-05T11:50:33;6.10;99.90
33811;DHT22;20119;48.334;16.206;2023-03-05T11:53:04;6.00;99.90
33811;DHT22;20119;48.334;16.206;2023-03-05T11:55:38;5.90;99.90
33811;DHT22;20119;48.334;16.206;2023-03-05T11:58:21;5.70;99.90
33811;DHT22;20119;48.334;16.206;2023-03-05T12:00:50;5.60;99.90
33811;DHT22;20119;48.334;16.206;2023-03-05T12:03:20;5.60;99.90
33811;DHT22;20119;48.334;16.206;2023-03-05T12:05:51;5.50;99.90
33811;DHT22;20119;48.334;16.206;2023-03-05T12:08:22;5.50;99.90
33811;DHT22;20119;48.334;16.206;2023-03-05T12:10:53;5.50;99.90
33811;DHT22;20119;48.334;16.206;2023-03-05T12:13:27;5.60;99.90
33811;DHT22;20119;48.334;16.206;2023-03-05T12:16:02;5.50;99.90
33811;DHT22;20119;48.334;16.206;2023-03-05T12:18:43;5.40;99.90
33811;DHT22;20119;48.334;16.206;2023-03-05T12:21:21;5.40;99.90
33811;DHT22;20119;48.334;16.206;2023-03-05T12:23:52;5.40;99.90
33811;DHT22;20119;48.334;16.206;2023-03-05T12:26:54;5.30;99.90
33811;DHT22;20119;48.334;16.206;2023-03-05T12:29:29;5.30;99.90
33811;DHT22;20119;48.334;16.206;2023-03-05T12:31:57;5.40;99.90
33811;DHT22;20119;48.334;16.206;2023-03-05T12:34:57;5.40;99.90
33811;DHT22;20119;48.334;16.206;2023-03-05T12:40:28;5.50;99.90
33811;DHT22;20119;48.334;16.206;2023-03-05T12:42:59;5.60;99.90
33811;DHT22;20119;48.334;16.206;2023-03-05T12:45:30;5.60;99.90
33811;DHT22;20119;48.334;16.206;2023-03-05T12:50:47;5.30;99.90
33811;DHT22;20119;48.334;16.206;2023-03-05T12:53:18;5.50;99.90
33811;DHT22;20119;48.334;16.206;2023-03-05T12:55:55;5.50;99.90
33811;DHT22;20119;48.334;16.206;2023-03-05T12:58:34;5.50;99.90
33811;DHT22;20119;48.334;16.206;2023-03-05T13:01:11;5.50;99.90
33811;DHT22;20119;48.334;16.206;2023-03-05T13:03:46;5.50;99.90
33811;DHT22;20119;48.334;16.206;2023-03-05T13:06:25;5.60;99.90
33811;DHT22;20119;48.334;16.206;2023-03-05T13:08:57;5.60;99.90
33811;DHT22;20119;48.334;16.206;2023-03-05T13:11:25;5.70;99.90
33811;DHT22;20119;48.334;16.206;2023-03-05T13:13:56;5.60;99.90
33811;DHT22;20119;48.334;16.206;2023-03-05T13:16:25;5.60;99.90
33811;DHT22;20119;48.334;16.206;2023-03-05T13:18:56;5.60;99.90
33811;DHT22;20119;48.334;16.206;2023-03-05T13:21:27;5.60;99.90
33811;DHT22;20119;48.334;16.206;2023-03-05T13:23:56;5.50;99.90
33811;DHT22;20119;48.334;16.206;2023-03-05T13:26:25;5.50;99.90
33811;DHT22;20119;48.334;16.206;2023-03-05T13:29:09;5.70;99.90
33811;DHT22;20119;48.334;16.206;2023-03-05T13:31:41;5.60;99.90
33811;DHT22;20119;48.334;16.206;2023-03-05T13:34:17;5.70;99.90
33811;DHT22;20119;48.334;16.206;2023-03-05T13:36:49;5.60;99.90
33811;DHT22;20119;48.334;16.206;2023-03-05T13:39:21;5.50;99.90
33811;DHT22;20119;48.334;16.206;2023-03-05T13:41:56;5.60;99.90
33811;DHT22;20119;48.334;16.206;2023-03-05T13:44:25;5.60;99.90
33811;DHT22;20119;48.334;16.206;2023-03-05T13:47:09;5.60;99.90
33811;DHT22;20119;48.334;16.206;2023-03-05T13:49:38;5.70;99.90
33811;DHT22;20119;48.334;16.206;2023-03-05T13:52:05;5.70;99.90
33811;DHT22;20119;48.334;16.206;2023-03-05T13:54:34;5.70;99.90
33811;DHT22;20119;48.334;16.206;2023-03-05T13:57:03;5.80;99.90
33811;DHT22;20119;48.334;16.206;2023-03-05T13:59:34;5.90;99.90
33811;DHT22;20119;48.334;16.206;2023-03-05T14:02:12;5.90;99.90
33811;DHT22;20119;48.334;16.206;2023-03-05T14:04:42;5.70;99.90
33811;DHT22;20119;48.334;16.206;2023-03-05T14:07:27;5.60;99.90
33811;DHT22;20119;48.334;16.206;2023-03-05T14:09:56;5.70;99.90
33811;DHT22;20119;48.334;16.206;2023-03-05T14:12:28;5.70;99.90
33811;DHT22;20119;48.334;16.206;2023-03-05T14:14:59;5.60;99.90
33811;DHT22;20119;48.334;16.206;2023-03-05T14:17:36;5.50;99.90
33811;DHT22;20119;48.334;16.206;2023-03-05T14:20:18;5.60;99.90
33811;DHT22;20119;48.334;16.206;2023-03-05T14:22:49;5.60;99.90
33811;DHT22;20119;48.334;16.206;2023-03-05T14:25:32;5.60;99.90
33811;DHT22;20119;48.334;16.206;2023-03-05T14:28:02;5.50;99.90
33811;DHT22;20119;48.334;16.206;2023-03-05T14:30:33;5.40;99.90
33811;DHT22;20119;48.334;16.206;2023-03-05T14:33:04;5.40;99.90
33811;DHT22;20119;48.334;16.206;2023-03-05T14:35:32;5.50;99.90
33811;DHT22;20119;48.334;16.206;2023-03-05T14:37:59;5.50;99.90
33811;DHT22;20119;48.334;16.206;2023-03-05T14:40:29;5.50;99.90
33811;DHT22;20119;48.334;16.206;2023-03-05T14:42:58;5.50;99.90
33811;DHT22;20119;48.334;16.206;2023-03-05T14:45:28;5.60;99.90
33811;DHT22;20119;48.334;16.206;2023-03-05T14:47:58;5.60;99.90
33811;DHT22;20119;48.334;16.206;2023-03-05T14:50:27;5.50;99.90
33811;DHT22;20119;48.334;16.206;2023-03-05T14:52:57;5.50;99.90
33811;DHT22;20119;48.334;16.206;2023-03-05T14:55:27;5.60;99.90
33811;DHT22;20119;48.334;16.206;2023-03-05T14:58:00;5.60;99.90
33811;DHT22;20119;48.334;16.206;2023-03-05T15:00:29;5.50;99.90
33811;DHT22;20119;48.334;16.206;2023-03-05T15:02:58;5.50;99.90
33811;DHT22;20119;48.334;16.206;2023-03-05T15:05:25;5.50;99.90
33811;DHT22;20119;48.334;16.206;2023-03-05T15:07:52;5.40;99.90
33811;DHT22;20119;48.334;16.206;2023-03-05T15:10:21;5.40;99.90
33811;DHT22;20119;48.334;16.206;2023-03-05T15:12:50;5.40;99.90
33811;DHT22;20119;48.334;16.206;2023-03-05T15:15:18;5.50;99.90
33811;DHT22;20119;48.334;16.206;2023-03-05T15:17:47;5.50;99.90
33811;DHT22;20119;48.334;16.206;2023-03-05T15:20:19;5.50;99.90
33811;DHT22;20119;48.334;16.206;2023-03-05T15:22:47;5.50;99.90
33811;DHT22;20119;48.334;16.206;2023-03-05T15:25:14;5.50;99.90
33811;DHT22;20119;48.334;16.206;2023-03-05T15:27:42;5.40;99.90
33811;DHT22;20119;48.334;16.206;2023-03-05T15:30:19;5.40;99.90
33811;DHT22;20119;48.334;16.206;2023-03-05T15:32:47;5.40;99.90
33811;DHT22;20119;48.334;16.206;2023-03-05T15:35:15;5.30;99.90
33811;DHT22;20119;48.334;16.206;2023-03-05T15:37:44;5.30;99.90
33811;DHT22;20119;48.334;16.206;2023-03-05T15:40:11;5.30;99.90
33811;DHT22;20119;48.334;16.206;2023-03-05T15:42:39;5.30;99.90
33811;DHT22;20119;48.334;16.206;2023-03-05T15:45:07;5.30;99.90
33811;DHT22;20119;48.334;16.206;2023-03-05T15:47:35;5.30;99.90
33811;DHT22;20119;48.334;16.206;2023-03-05T15:50:02;5.30;99.90
33811;DHT22;20119;48.334;16.206;2023-03-05T15:52:30;5.20;99.90
33811;DHT22;20119;48.334;16.206;2023-03-05T15:55:02;5.20;99.90
33811;DHT22;20119;48.334;16.206;2023-03-05T15:57:29;5.20;99.90
33811;DHT22;20119;48.334;16.206;2023-03-05T15:59:58;5.20;99.90
33811;DHT22;20119;48.334;16.206;2023-03-05T16:02:25;5.10;99.90
33811;DHT22;20119;48.334;16.206;2023-03-05T16:04:52;5.10;99.90
33811;DHT22;20119;48.334;16.206;2023-03-05T16:07:19;5.20;99.90